Saint-Pacome, Canada
Current Conditions -  °F | °C
As of 2:53 PM on Sunday 23 Nov 2014 (Local Time) from KFVE Reporting Station
Overcast Overcast  
Wind Chill: 36°   Ceiling: 4200
Heat Index: 36°   Visibility: 10mi
Dew Point: 29°   Wind: 3mph
Humidity: 76%   Direction: 250°WSW
Pressure: 30"   Gusts: NA
Location:  47.42°N, 69.95°W
Report Text: KFVE 231953Z AUTO 25003KT 10SM OVC042 02/M02 A3000 RMK AO2 SLP167 T00221017
Loading
Personal Weather Stations






























Interactive Weather Map New forecast layout! Learn more

10-Day Weather Forecast

Advertisements
Track Severe Weather on mobile